Bushong, Kansas
Current Conditions -  °F | °C
As of 2:53 PM on Sunday 21 Dec 2014 (Local Time) from KEMP Reporting Station
Haze Haze  
Wind Chill: 36°   Ceiling: 900
Heat Index: 43°   Visibility: 4mi
Dew Point: 41°   Wind: 13mph
Humidity: 93%   Direction: 150°SSE
Pressure: 29.8"   Gusts: NA
Location:  38.6329°N, 96.2407°W
Report Text: KEMP 212053Z AUTO 15011KT 4SM BR OVC009 06/05 A2980 RMK AO2 RAE03B19E53 CIG 007V011 SLP098 P0000 60000 T00610050 56034
Loading
Personal Weather Stations






























Interactive Weather Map New forecast layout! Learn more

10-Day Weather Forecast

Advertisements
Track Severe Weather on mobile